Time;durP1;ratioP1;P1;durP2;ratioP2;P2;SDS_P1;SDS_P2;PMS_P1;PMS_P2;Temp;Humidity;BMP_temperature;BMP_pressure;BME280_temperature;BME280_humidity;BME280_pressure;Samples;Min_cycle;Max_cycle;Signal;HPM_P1;HPM_P2
2021/08/10 00:02:26;;;;;;;44.30;40.23;;;;;;;15.65;100.00;101500.55;1972045;73;33493;-72
2021/08/10 00:07:50;;;;;;;43.93;40.23;;;;;;;15.65;100.00;101500.55;1971940;73;32914;-80
2021/08/10 00:13:17;;;;;;;42.77;39.27;;;;;;;15.52;100.00;101497.66;1972006;73;33474;-80
2021/08/10 00:18:42;;;;;;;43.90;40.07;;;;;;;15.37;100.00;101489.70;1971871;73;32990;-72
2021/08/10 00:24:07;;;;;;;41.47;37.80;;;;;;;15.40;100.00;101489.69;1971866;73;32993;-79
2021/08/10 00:29:32;;;;;;;43.30;39.27;;;;;;;15.49;100.00;101491.48;1971815;73;31037;-72
2021/08/10 00:34:56;;;;;;;44.03;40.10;;;;;;;15.44;100.00;101486.55;1971887;73;32977;-79
2021/08/10 00:40:22;;;;;;;42.07;38.83;;;;;;;15.41;100.00;101496.93;1971956;73;31040;-72
2021/08/10 00:45:46;;;;;;;42.50;38.90;;;;;;;15.35;100.00;101493.95;1972136;73;33465;-79
2021/08/10 00:51:14;;;;;;;42.40;39.13;;;;;;;15.41;100.00;101491.33;1971905;73;32990;-80
2021/08/10 00:56:40;;;;;;;43.97;40.43;;;;;;;15.24;100.00;101483.45;1971942;73;33012;-74
2021/08/10 01:02:06;;;;;;;45.27;41.43;;;;;;;15.16;100.00;101485.53;1972027;73;33460;-80
2021/08/10 01:10:23;;;;;;;45.67;41.50;;;;;;;15.10;100.00;101492.91;2061269;69;33178;-70
2021/08/10 01:12:56;;;;;;;46.10;42.20;;;;;;;15.13;100.00;101509.09;2030882;70;26696;-79
2021/08/10 01:15:30;;;;;;;46.33;42.67;;;;;;;15.11;100.00;101507.14;2030329;71;26615;-79
2021/08/10 01:18:04;;;;;;;45.63;41.87;;;;;;;15.09;100.00;101509.42;1950662;73;24136;-70
2021/08/10 01:20:54;;;;;;;43.37;39.80;;;;;;;15.13;100.00;101507.13;2028225;71;24089;-78
2021/08/10 01:26:29;;;;;;;43.47;39.77;;;;;;;15.12;100.00;101502.66;1900534;75;33687;-80
2021/08/10 01:32:02;;;;;;;41.83;38.13;;;;;;;15.08;100.00;101509.14;1972054;73;33536;-71
2021/08/10 01:37:31;;;;;;;42.77;38.80;;;;;;;15.10;100.00;101511.09;1971973;73;32903;-80
2021/08/10 01:43:00;;;;;;;44.07;40.57;;;;;;;15.02;100.00;101519.56;1972062;72;33490;-80
2021/08/10 01:48:25;;;;;;;41.83;38.23;;;;;;;15.03;100.00;101515.08;1971800;73;33044;-72
2021/08/10 01:53:52;;;;;;;43.90;40.20;;;;;;;15.20;100.00;101517.38;1971783;73;32942;-80
2021/08/10 01:59:19;;;;;;;43.43;40.03;;;;;;;15.00;100.00;101530.23;1971945;73;32910;-80
2021/08/10 02:04:48;;;;;;;44.80;41.10;;;;;;;14.86;100.00;101524.52;1971820;73;32946;-72
2021/08/10 02:10:14;;;;;;;44.73;41.07;;;;;;;14.96;100.00;101529.16;1971816;73;32989;-80
2021/08/10 02:18:27;;;;;;;41.90;38.47;;;;;;;15.08;100.00;101536.56;2061024;69;32631;-72
2021/08/10 02:23:57;;;;;;;43.60;39.77;;;;;;;14.98;100.00;101527.72;1971884;73;33055;-78
2021/08/10 02:29:23;;;;;;;42.53;39.17;;;;;;;14.96;100.00;101525.80;1971995;73;33078;-80
2021/08/10 02:34:49;;;;;;;42.17;38.50;;;;;;;14.88;100.00;101522.83;1972021;73;33419;-80
2021/08/10 02:40:18;;;;;;;44.13;40.43;;;;;;;14.94;100.00;101535.61;1969627;71;32972;-82
2021/08/10 02:45:45;;;;;;;43.27;39.43;;;;;;;14.84;100.00;101528.75;1972075;73;33498;-72
2021/08/10 02:51:09;;;;;;;42.80;39.20;;;;;;;14.86;100.00;101535.70;1971837;73;33003;-80
2021/08/10 02:56:37;;;;;;;44.37;40.63;;;;;;;14.80;100.00;101531.87;1972072;73;33381;-80
2021/08/10 03:02:07;;;;;;;43.53;39.40;;;;;;;14.74;100.00;101535.84;1972029;73;33627;-72
2021/08/10 03:07:35;;;;;;;41.60;37.90;;;;;;;14.71;100.00;101538.69;1971948;73;33473;-79
2021/08/10 03:13:03;;;;;;;44.07;40.50;;;;;;;14.79;100.00;101529.64;1972009;73;32984;-72
2021/08/10 03:18:37;;;;;;;42.57;39.10;;;;;;;14.67;100.00;101537.61;1971834;73;32983;-80
2021/08/10 03:24:05;;;;;;;42.80;39.40;;;;;;;14.75;100.00;101531.93;1971856;73;32994;-80
2021/08/10 03:29:31;;;;;;;42.03;38.77;;;;;;;14.72;100.00;101539.53;1971992;73;33452;-71
2021/08/10 03:34:57;;;;;;;41.27;37.67;;;;;;;14.70;100.00;101533.38;1971871;73;32905;-72
2021/08/10 03:40:22;;;;;;;43.40;39.30;;;;;;;14.57;100.00;101535.75;1971963;73;33435;-80
2021/08/10 03:45:47;;;;;;;44.17;40.30;;;;;;;14.64;100.00;101521.97;1972112;73;33395;-72
2021/08/10 03:51:14;;;;;;;43.00;39.63;;;;;;;14.51;100.00;101526.30;1971993;73;33397;-80
2021/08/10 03:56:40;;;;;;;43.90;40.00;;;;;;;14.33;100.00;101521.44;1972050;73;33018;-72
2021/08/10 04:02:07;;;;;;;42.83;39.53;;;;;;;14.37;100.00;101519.75;1906399;73;39773;-71
2021/08/10 04:07:34;;;;;;;44.00;40.27;;;;;;;14.43;100.00;101515.20;1971818;73;33015;-71
2021/08/10 04:13:00;;;;;;;43.30;39.60;;;;;;;14.36;100.00;101525.90;1972063;73;33512;-79
2021/08/10 04:18:26;;;;;;;44.13;40.53;;;;;;;14.39;100.00;101530.89;1972002;72;33466;-72
2021/08/10 04:23:51;;;;;;;43.47;39.93;;;;;;;14.19;100.00;101530.22;1971833;73;32962;-80
2021/08/10 04:29:15;;;;;;;43.50;40.23;;;;;;;14.17;100.00;101531.06;1972009;73;33419;-72
2021/08/10 04:34:40;;;;;;;41.73;38.33;;;;;;;13.95;100.00;101550.52;1971926;73;32894;-72
2021/08/10 04:40:06;;;;;;;41.30;38.10;;;;;;;14.19;100.00;101551.17;1971740;73;32960;-78
2021/08/10 04:45:31;;;;;;;41.13;37.90;;;;;;;14.15;100.00;101553.72;1971822;73;32893;-79
2021/08/10 04:50:55;;;;;;;39.50;36.40;;;;;;;13.98;100.00;101553.30;1971831;73;33078;-80
2021/08/10 04:56:20;;;;;;;42.40;39.50;;;;;;;14.00;100.00;101546.84;1971816;73;32977;-71
2021/08/10 05:01:45;;;;;;;42.07;38.80;;;;;;;13.96;100.00;101548.00;1971980;73;32932;-71
2021/08/10 05:07:28;;;;;;;42.73;39.37;;;;;;;13.91;100.00;101556.97;2016041;71;32902;-72
2021/08/10 05:13:12;;;;;;;43.00;39.47;;;;;;;14.03;100.00;101556.06;2016045;71;33016;-72
2021/08/10 05:18:56;;;;;;;42.23;38.83;;;;;;;14.34;100.00;101556.06;2016076;71;32819;-79
2021/08/10 05:24:22;;;;;;;42.07;38.83;;;;;;;14.47;100.00;101568.55;1971916;73;33080;-79
2021/08/10 05:29:47;;;;;;;42.90;39.27;;;;;;;14.62;100.00;101572.61;1972057;73;33466;-80
2021/08/10 05:35:12;;;;;;;43.07;39.57;;;;;;;14.68;100.00;101581.20;1971874;73;32948;-80
2021/08/10 05:40:37;;;;;;;42.03;38.80;;;;;;;14.82;100.00;101586.37;1971890;73;32935;-72
2021/08/10 05:46:01;;;;;;;44.23;40.93;;;;;;;14.79;100.00;101588.94;1972150;73;33489;-79
2021/08/10 05:51:26;;;;;;;45.50;41.67;;;;;;;14.83;100.00;101596.45;1971889;73;33023;-72
2021/08/10 05:56:51;;;;;;;42.50;39.10;;;;;;;15.00;100.00;101588.99;1971914;73;32999;-72
2021/08/10 06:02:15;;;;;;;43.47;40.00;;;;;;;15.05;100.00;101601.53;1971993;73;32973;-79
2021/08/10 06:07:39;;;;;;;44.70;41.20;;;;;;;15.15;100.00;101599.16;1971926;73;32989;-72
2021/08/10 06:13:05;;;;;;;45.37;41.77;;;;;;;15.22;100.00;101606.09;1971847;73;32966;-71
2021/08/10 06:18:30;;;;;;;47.63;44.27;;;;;;;15.22;100.00;101611.69;1971937;73;32889;-72
2021/08/10 06:23:55;;;;;;;51.47;47.47;;;;;;;15.25;100.00;101602.68;1971969;73;32913;-72
2021/08/10 06:29:20;;;;;;;49.53;45.60;;;;;;;15.31;100.00;101608.50;1971860;73;32973;-72
2021/08/10 06:34:44;;;;;;;49.07;45.63;;;;;;;15.33;100.00;101609.58;1972021;73;33490;-80
2021/08/10 06:40:11;;;;;;;48.73;44.90;;;;;;;15.51;100.00;101614.44;1971986;71;32925;-83
2021/08/10 06:45:36;;;;;;;51.73;48.13;;;;;;;15.49;100.00;101622.25;1971830;73;33184;-72
2021/08/10 06:51:01;;;;;;;49.83;46.33;;;;;;;15.51;100.00;101614.44;1972016;73;33495;-72
2021/08/10 06:56:26;;;;;;;50.97;47.43;;;;;;;15.52;100.00;101613.87;1971990;73;32990;-80
2021/08/10 07:01:51;;;;;;;48.63;45.43;;;;;;;15.68;100.00;101614.77;1972070;72;33464;-72
2021/08/10 07:07:15;;;;;;;48.60;45.20;;;;;;;15.68;100.00;101623.16;1971982;73;32971;-80
2021/08/10 07:12:39;;;;;;;50.77;46.90;;;;;;;15.70;100.00;101629.87;1972170;73;32912;-73
2021/08/10 07:18:06;;;;;;;47.37;44.27;;;;;;;15.74;100.00;101628.14;1972041;73;33468;-72
2021/08/10 07:23:30;;;;;;;48.37;45.17;;;;;;;15.69;100.00;101633.81;1971949;73;33461;-72
2021/08/10 07:28:55;;;;;;;48.53;45.10;;;;;;;15.96;100.00;101625.56;1971815;73;32889;-72
2021/08/10 07:34:19;;;;;;;48.40;45.20;;;;;;;15.94;100.00;101625.05;1972035;73;33473;-79
2021/08/10 07:39:45;;;;;;;50.50;47.13;;;;;;;16.00;100.00;101625.81;1971863;73;30961;-72
2021/08/10 07:45:12;;;;;;;41.53;38.53;;;;;;;16.58;100.00;101641.73;1972150;73;33367;-71
2021/08/10 07:50:36;;;;;;;45.37;42.27;;;;;;;16.65;100.00;101643.56;1971963;73;33401;-72
2021/08/10 07:56:01;;;;;;;46.57;43.40;;;;;;;16.51;100.00;101642.67;1972043;73;32902;-79
2021/08/10 08:01:25;;;;;;;44.97;41.57;;;;;;;16.21;100.00;101655.20;1972090;73;32970;-72
2021/08/10 08:06:50;;;;;;;46.80;43.53;;;;;;;16.75;100.00;101660.23;1971759;73;32917;-80
2021/08/10 08:12:14;;;;;;;46.53;43.53;;;;;;;16.74;100.00;101652.38;1971826;73;31541;-79
2021/08/10 08:17:39;;;;;;;42.97;39.87;;;;;;;16.96;100.00;101652.28;1971979;73;31046;-72
2021/08/10 08:23:05;;;;;;;41.47;38.40;;;;;;;16.89;100.00;101654.09;1937156;74;31111;-80
2021/08/10 08:28:30;;;;;;;42.83;39.73;;;;;;;16.99;100.00;101660.07;1971881;73;31453;-72
2021/08/10 08:33:54;;;;;;;42.70;39.60;;;;;;;17.15;100.00;101658.11;1971820;73;33465;-72
2021/08/10 08:39:19;;;;;;;38.77;36.17;;;;;;;17.94;100.00;101656.48;1971758;73;30946;-80
2021/08/10 08:44:44;;;;;;;38.03;35.43;;;;;;;18.10;100.00;101643.73;1972058;73;33410;-72
2021/08/10 08:50:11;;;;;;;40.63;37.73;;;;;;;17.90;100.00;101642.23;1971795;73;31013;-72
2021/08/10 08:55:39;;;;;;;40.23;37.43;;;;;;;18.08;100.00;101643.23;1971948;73;31180;-80
2021/08/10 09:01:03;;;;;;;39.10;36.50;;;;;;;18.28;100.00;101646.97;1971873;73;33464;-79
2021/08/10 09:06:29;;;;;;;49.43;46.20;;;;;;;18.24;100.00;101630.47;1971978;73;31466;-79
2021/08/10 09:11:55;;;;;;;44.93;42.20;;;;;;;18.44;100.00;101627.16;1971930;73;33565;-72
2021/08/10 09:17:23;;;;;;;43.50;40.60;;;;;;;18.89;100.00;101612.52;1971820;73;31132;-79
2021/08/10 09:22:50;;;;;;;36.33;34.03;;;;;;;18.98;100.00;101619.03;1971929;73;31562;-79
2021/08/10 09:28:14;;;;;;;39.03;36.23;;;;;;;18.41;100.00;101621.34;1971961;73;31494;-73
2021/08/10 09:33:41;;;;;;;46.27;43.53;;;;;;;18.20;100.00;101611.17;1972035;73;31080;-79
2021/08/10 09:39:16;;;;;;;37.07;34.57;;;;;;;19.06;100.00;101606.98;1971823;73;31134;-72
2021/08/10 09:45:06;;;;;;;37.83;35.13;;;;;;;19.02;100.00;101601.75;1971980;73;31519;-79
2021/08/10 09:50:32;;;;;;;45.80;42.93;;;;;;;18.67;100.00;101602.70;1971813;73;30937;-79
2021/08/10 09:56:12;;;;;;;39.17;36.67;;;;;;;18.99;100.00;101602.41;1971825;73;31046;-79
2021/08/10 10:01:55;;;;;;;38.50;35.87;;;;;;;18.99;100.00;101604.38;1971964;73;33385;-80
2021/08/10 10:07:22;;;;;;;39.27;36.77;;;;;;;19.14;100.00;101601.12;1972090;73;31918;-73
2021/08/10 10:12:49;;;;;;;40.50;37.43;;;;;;;19.15;100.00;101588.71;1971901;73;31523;-79
2021/08/10 10:18:15;;;;;;;38.83;36.43;;;;;;;19.13;100.00;101595.81;1972009;73;31467;-74
2021/08/10 10:23:41;;;;;;;41.27;38.57;;;;;;;19.31;100.00;101599.79;1972010;73;31434;-73
2021/08/10 10:29:07;;;;;;;41.80;39.10;;;;;;;20.15;100.00;101593.83;1971809;73;30959;-72
2021/08/10 10:34:33;;;;;;;41.50;38.90;;;;;;;19.88;100.00;101583.72;1971957;72;31490;-73
2021/08/10 10:40:02;;;;;;;39.50;37.20;;;;;;;19.86;100.00;101586.02;1971848;73;31051;-71
2021/08/10 10:45:35;;;;;;;40.10;37.70;;;;;;;19.42;100.00;101577.22;1971766;73;31083;-79
2021/08/10 10:48:31;;;;;;;38.63;36.23;;;;;;;19.48;100.00;101579.32;1934577;74;24120;-79
2021/08/10 10:54:26;;;;;;;38.57;36.13;;;;;;;19.51;100.00;101568.82;1971899;73;30992;-79
2021/08/10 10:59:52;;;;;;;38.10;35.67;;;;;;;19.84;100.00;101568.63;1971936;73;33492;-74
2021/08/10 11:05:28;;;;;;;37.30;35.03;;;;;;;19.92;100.00;101570.62;1971764;73;30965;-77
2021/08/10 11:10:53;;;;;;;38.27;35.97;;;;;;;19.83;100.00;101566.95;1971914;73;31497;-79
2021/08/10 11:17:07;;;;;;;36.27;34.07;;;;;;;20.03;100.00;101570.27;1971654;72;31017;-72
2021/08/10 11:22:32;;;;;;;38.43;36.23;;;;;;;19.73;100.00;101572.91;1946653;73;31451;-72
2021/08/10 11:27:56;;;;;;;39.97;37.57;;;;;;;19.88;100.00;101572.44;1971881;73;33521;-80
2021/08/10 11:33:45;;;;;;;36.93;34.80;;;;;;;20.09;100.00;101575.43;1971799;72;31474;-79
2021/08/10 11:39:19;;;;;;;36.03;33.90;;;;;;;20.17;100.00;101574.59;1971983;73;31029;-71
2021/08/10 11:44:45;;;;;;;38.30;36.00;;;;;;;19.87;100.00;101571.34;1971703;73;30995;-71
2021/08/10 11:50:12;;;;;;;36.67;34.37;;;;;;;20.23;100.00;101571.03;1971746;73;31069;-79
2021/08/10 11:55:39;;;;;;;35.07;32.90;;;;;;;20.35;100.00;101572.63;1971635;73;31033;-72
2021/08/10 12:01:10;;;;;;;36.97;34.67;;;;;;;20.42;100.00;101567.30;1971675;73;30955;-79
2021/08/10 12:06:35;;;;;;;35.80;33.60;;;;;;;20.68;100.00;101575.14;1971652;73;30943;-79
2021/08/10 12:12:05;;;;;;;36.27;34.07;;;;;;;20.96;100.00;101576.15;1971728;73;31143;-79
2021/08/10 12:17:31;;;;;;;47.60;45.00;;;;;;;20.73;100.00;101567.91;1971815;73;31038;-79
2021/08/10 12:23:02;;;;;;;36.03;34.03;;;;;;;20.21;100.00;101463.31;1971893;72;31074;-79
2021/08/10 12:28:27;;;;;;;35.57;33.67;;;;;;;21.00;100.00;101565.25;1971895;73;31053;-79
2021/08/10 12:33:54;;;;;;;32.00;30.37;;;;;;;21.08;100.00;101560.72;1971960;73;31005;-79
2021/08/10 12:39:19;;;;;;;35.93;33.83;;;;;;;21.06;100.00;101551.16;1972017;73;30939;-70
2021/08/10 12:44:45;;;;;;;31.90;30.20;;;;;;;21.28;100.00;101556.58;1972143;73;30943;-79
2021/08/10 12:50:25;;;;;;;33.97;32.07;;;;;;;21.43;100.00;101544.45;1971898;73;30910;-79
2021/08/10 12:55:53;;;;;;;29.00;27.50;;;;;;;21.71;100.00;101541.34;1971911;73;30949;-79
2021/08/10 13:01:18;;;;;;;30.33;28.73;;;;;;;21.46;100.00;101538.94;1972163;73;31495;-79
2021/08/10 13:06:42;;;;;;;32.50;30.70;;;;;;;21.52;100.00;101540.38;1971891;73;30939;-72
2021/08/10 13:12:11;;;;;;;27.97;26.47;;;;;;;22.00;100.00;101544.14;1972084;73;31552;-75
2021/08/10 13:17:55;;;;;;;24.02;22.82;;;;;;;22.02;100.00;101536.15;1971849;73;31120;-71
2021/08/10 13:23:21;;;;;;;24.55;23.45;;;;;;;22.01;100.00;101537.90;1971861;73;30968;-72
2021/08/10 13:28:56;;;;;;;25.85;24.65;;;;;;;21.86;100.00;101540.75;1972058;73;31040;-71
2021/08/10 13:34:22;;;;;;;30.32;28.83;;;;;;;21.67;100.00;101548.28;1971847;73;30962;-73
2021/08/10 13:39:47;;;;;;;29.65;28.17;;;;;;;21.92;100.00;101545.04;1971852;73;30941;-79
2021/08/10 13:45:12;;;;;;;30.95;29.42;;;;;;;22.09;100.00;101549.14;1971928;73;31074;-79
2021/08/10 13:50:37;;;;;;;27.85;26.35;;;;;;;22.06;100.00;101543.35;1971817;73;30974;-79
2021/08/10 13:56:03;;;;;;;26.90;25.48;;;;;;;22.20;100.00;101539.07;1971886;73;30923;-72
2021/08/10 14:01:34;;;;;;;27.48;26.20;;;;;;;22.24;100.00;101527.88;1972057;73;30972;-77
2021/08/10 14:06:59;;;;;;;28.75;27.25;;;;;;;21.98;100.00;101534.35;1971942;73;30935;-72
2021/08/10 14:12:23;;;;;;;25.62;24.32;;;;;;;21.94;100.00;101527.15;1972073;73;31403;-79
2021/08/10 14:17:48;;;;;;;26.80;25.48;;;;;;;22.19;100.00;101526.67;1972034;73;31443;-72
2021/08/10 14:23:14;;;;;;;27.52;26.23;;;;;;;22.25;100.00;101525.27;1971854;72;30943;-79
2021/08/10 14:28:38;;;;;;;25.70;24.50;;;;;;;22.36;100.00;101520.01;1971856;73;30983;-70
2021/08/10 14:34:03;;;;;;;25.82;24.63;;;;;;;21.97;100.00;101521.37;1972102;73;31041;-72
2021/08/10 14:39:28;;;;;;;25.02;23.77;;;;;;;22.44;100.00;101514.26;1972079;73;31112;-72
2021/08/10 14:44:52;;;;;;;27.07;25.77;;;;;;;22.32;100.00;101515.64;1971851;73;30946;-73
2021/08/10 14:50:17;;;;;;;27.95;26.52;;;;;;;22.18;100.00;101517.34;1972057;73;32329;-72
2021/08/10 14:55:41;;;;;;;24.18;22.98;;;;;;;22.10;100.00;101520.26;1971811;73;31007;-73
2021/08/10 15:01:07;;;;;;;25.43;24.23;;;;;;;22.35;100.00;101514.93;1971949;73;31172;-72
2021/08/10 15:06:31;;;;;;;28.42;27.02;;;;;;;22.18;100.00;101510.27;1971931;73;31003;-78
2021/08/10 15:11:55;;;;;;;26.73;25.32;;;;;;;22.19;100.00;101506.86;1972044;73;30955;-74
2021/08/10 15:17:20;;;;;;;28.98;27.58;;;;;;;22.32;100.00;101499.23;1972249;73;31576;-70
2021/08/10 15:22:45;;;;;;;27.37;25.95;;;;;;;22.51;100.00;101506.00;1944117;73;30972;-79
2021/08/10 15:28:09;;;;;;;28.32;26.82;;;;;;;22.38;100.00;101503.52;1971967;73;31065;-79
2021/08/10 15:33:54;;;;;;;28.12;26.73;;;;;;;22.16;100.00;101499.08;2005018;71;30987;-72
2021/08/10 15:39:25;;;;;;;35.28;33.55;;;;;;;22.03;100.00;101501.03;1972032;73;31625;-72
2021/08/10 15:44:50;;;;;;;23.40;22.10;;;;;;;22.20;100.00;101498.61;1972091;73;31490;-79
2021/08/10 15:50:17;;;;;;;24.10;22.90;;;;;;;22.75;100.00;101483.20;1972235;73;31020;-79
2021/08/10 15:55:42;;;;;;;21.93;20.92;;;;;;;22.77;100.00;101482.24;1971974;73;31052;-71
2021/08/10 16:01:07;;;;;;;22.48;21.30;;;;;;;22.66;100.00;101486.11;1972080;73;30961;-72
2021/08/10 16:06:33;;;;;;;23.95;22.75;;;;;;;22.50;100.00;101483.14;1971817;72;30983;-77
2021/08/10 16:11:59;;;;;;;23.62;22.52;;;;;;;22.54;100.00;101486.92;1972162;73;31046;-73
2021/08/10 16:17:24;;;;;;;25.27;23.85;;;;;;;22.55;100.00;101493.38;1971791;73;30976;-72
2021/08/10 16:22:48;;;;;;;21.48;20.37;;;;;;;22.53;100.00;101486.68;1972006;73;31522;-79
2021/08/10 16:28:13;;;;;;;22.20;21.10;;;;;;;22.75;100.00;101482.62;1971926;73;31040;-69
2021/08/10 16:33:38;;;;;;;23.12;22.02;;;;;;;22.47;100.00;101485.82;1971888;73;31056;-73
2021/08/10 16:39:03;;;;;;;23.30;22.13;;;;;;;22.45;100.00;101490.44;1972096;73;31099;-79
2021/08/10 16:44:31;;;;;;;22.15;21.05;;;;;;;22.32;100.00;101493.58;1972108;73;31440;-76
2021/08/10 16:49:55;;;;;;;21.23;20.23;;;;;;;22.57;100.00;101487.63;1972077;73;31031;-78
2021/08/10 16:55:20;;;;;;;21.68;20.48;;;;;;;22.60;100.00;101482.67;1972067;73;31536;-77
2021/08/10 17:00:45;;;;;;;23.62;22.42;;;;;;;22.57;100.00;101487.63;1971839;73;31049;-78
2021/08/10 17:06:10;;;;;;;22.48;21.37;;;;;;;22.42;100.00;101485.45;1972060;73;31427;-70
2021/08/10 17:11:35;;;;;;;22.50;21.45;;;;;;;22.43;100.00;101491.94;1972091;73;31493;-71
2021/08/10 17:17:00;;;;;;;24.50;23.30;;;;;;;22.36;100.00;101498.78;1972073;72;31445;-71
2021/08/10 17:22:27;;;;;;;25.60;24.35;;;;;;;22.32;100.00;101491.58;1948207;73;31553;-71
2021/08/10 17:28:10;;;;;;;24.18;23.07;;;;;;;22.35;100.00;101493.70;2016249;71;30882;-72
2021/08/10 17:33:38;;;;;;;22.50;21.40;;;;;;;22.26;100.00;101498.62;1972100;73;31467;-71
2021/08/10 17:39:03;;;;;;;23.60;22.47;;;;;;;22.19;100.00;101495.54;1971904;73;30963;-71
2021/08/10 17:44:28;;;;;;;24.63;23.40;;;;;;;22.22;100.00;101493.42;1971903;73;31037;-79
2021/08/10 17:49:59;;;;;;;23.57;22.45;;;;;;;22.16;100.00;101497.66;1971887;73;30971;-76
2021/08/10 17:55:24;;;;;;;24.63;23.42;;;;;;;22.13;100.00;101500.58;1972021;73;31592;-77
2021/08/10 18:00:49;;;;;;;25.48;24.10;;;;;;;22.09;100.00;101510.94;1971848;73;30967;-79
2021/08/10 18:06:13;;;;;;;24.33;23.10;;;;;;;22.11;100.00;101502.95;1971874;73;31113;-72
2021/08/10 18:11:40;;;;;;;25.88;24.55;;;;;;;22.10;100.00;101506.11;1972205;73;31060;-71
2021/08/10 18:17:05;;;;;;;24.63;23.42;;;;;;;22.02;100.00;101503.61;1971897;73;30973;-79
2021/08/10 18:22:29;;;;;;;24.72;23.42;;;;;;;22.00;100.00;101502.28;1971898;71;31052;-71
2021/08/10 18:27:54;;;;;;;25.27;23.98;;;;;;;22.03;100.00;101507.27;1971915;73;31071;-72
2021/08/10 18:33:19;;;;;;;25.93;24.53;;;;;;;21.97;100.00;101504.40;1972114;73;30993;-78
2021/08/10 18:38:44;;;;;;;25.30;24.00;;;;;;;21.82;100.00;101507.84;1972109;73;31367;-79
2021/08/10 18:44:09;;;;;;;27.20;25.90;;;;;;;21.76;100.00;101512.87;1971902;73;31105;-72
2021/08/10 18:49:33;;;;;;;29.82;28.32;;;;;;;21.58;100.00;101512.75;1971918;73;30934;-73
2021/08/10 18:54:58;;;;;;;26.52;25.15;;;;;;;21.43;100.00;101521.26;1971862;73;30988;-79
2021/08/10 19:00:23;;;;;;;27.93;26.42;;;;;;;21.45;100.00;101528.80;1971875;73;31021;-72
2021/08/10 19:05:48;;;;;;;28.10;26.55;;;;;;;21.40;100.00;101530.41;1971947;72;30925;-78
2021/08/10 19:11:13;;;;;;;27.80;26.33;;;;;;;21.33;100.00;101542.26;1972047;73;31452;-72
2021/08/10 19:16:39;;;;;;;28.80;27.30;;;;;;;21.31;100.00;101546.58;1972145;73;31434;-72
2021/08/10 19:22:03;;;;;;;30.33;28.47;;;;;;;21.19;100.00;101566.27;1952569;73;31048;-72
2021/08/10 19:27:28;;;;;;;32.30;30.50;;;;;;;21.12;100.00;101575.83;1972102;73;31397;-79
2021/08/10 19:32:52;;;;;;;33.33;31.47;;;;;;;21.04;100.00;101584.59;1971867;73;31191;-72
2021/08/10 19:38:17;;;;;;;34.77;32.87;;;;;;;20.89;100.00;101590.19;1971874;73;31007;-72
2021/08/10 19:43:41;;;;;;;38.27;36.13;;;;;;;20.79;100.00;101598.22;1971860;73;30937;-72
2021/08/10 19:49:06;;;;;;;41.13;38.80;;;;;;;20.63;100.00;101605.53;1971855;73;30953;-73
2021/08/10 19:54:50;;;;;;;43.00;40.60;;;;;;;20.45;100.00;101603.34;2016259;71;30997;-71
2021/08/10 20:00:16;;;;;;;45.33;42.62;;;;;;;20.32;100.00;101617.84;1972032;73;33413;-72
2021/08/10 20:06:00;;;;;;;46.20;43.17;;;;;;;20.21;100.00;101628.36;2016219;71;33357;-72
2021/08/10 20:11:26;;;;;;;45.30;42.63;;;;;;;20.12;100.00;101641.05;1971853;73;30972;-72
2021/08/10 20:16:50;;;;;;;44.77;41.97;;;;;;;19.99;100.00;101649.08;1972021;73;31055;-72
2021/08/10 20:22:15;;;;;;;45.67;42.80;;;;;;;19.89;100.00;101657.87;1972102;71;31477;-79
2021/08/10 20:27:38;;;;;;;46.60;43.60;;;;;;;19.66;100.00;101664.18;1971862;73;30973;-72
2021/08/10 20:33:04;;;;;;;45.30;42.60;;;;;;;19.60;100.00;101675.91;1971925;73;31118;-72
2021/08/10 20:38:29;;;;;;;46.67;43.63;;;;;;;19.59;100.00;101677.09;1972028;73;31424;-79
2021/08/10 20:43:53;;;;;;;49.73;46.53;;;;;;;19.43;100.00;101679.50;1972051;73;31607;-72
2021/08/10 20:49:37;;;;;;;50.10;46.90;;;;;;;19.22;100.00;101686.81;2016610;71;30901;-79
2021/08/10 20:55:02;;;;;;;49.20;46.10;;;;;;;19.17;100.00;101696.84;1972041;73;31608;-72
2021/08/10 21:00:27;;;;;;;49.67;46.50;;;;;;;19.07;100.00;101694.55;1971892;73;33397;-72
2021/08/10 21:05:51;;;;;;;50.37;47.37;;;;;;;19.03;100.00;101694.10;1972037;73;31534;-79
2021/08/10 21:11:16;;;;;;;48.97;45.93;;;;;;;18.90;100.00;101696.41;1972034;73;31537;-72
2021/08/10 21:17:00;;;;;;;48.63;45.57;;;;;;;18.78;100.00;101701.22;2016065;71;30873;-72
2021/08/10 21:22:25;;;;;;;49.70;46.60;;;;;;;18.60;100.00;101703.64;1961841;71;30979;-73
2021/08/10 21:27:50;;;;;;;48.07;44.93;;;;;;;18.48;100.00;101706.95;1971887;73;30956;-79
2021/08/10 21:33:14;;;;;;;51.33;47.93;;;;;;;18.37;100.00;101721.02;1971914;73;30964;-79
2021/08/10 21:38:38;;;;;;;47.17;44.07;;;;;;;18.27;100.00;101720.44;1971825;73;31026;-72
2021/08/10 21:44:03;;;;;;;46.83;43.83;;;;;;;18.25;100.00;101723.55;1971978;73;30966;-72
2021/08/10 21:49:27;;;;;;;48.90;45.50;;;;;;;18.19;100.00;101729.86;1971844;73;31044;-72
2021/08/10 21:54:52;;;;;;;49.33;46.03;;;;;;;18.13;100.00;101743.79;1972021;73;30959;-79
2021/08/10 22:00:17;;;;;;;50.03;46.73;;;;;;;18.10;100.00;101757.62;1971838;73;31041;-79
2021/08/10 22:05:45;;;;;;;48.50;45.33;;;;;;;17.87;100.00;101762.91;1971944;73;31085;-78
2021/08/10 22:11:12;;;;;;;48.57;45.10;;;;;;;17.77;100.00;101770.13;1971863;72;30980;-72
2021/08/10 22:16:37;;;;;;;50.53;47.23;;;;;;;17.79;100.00;101768.69;1972206;73;33486;-72
2021/08/10 22:22:02;;;;;;;49.87;46.47;;;;;;;17.64;100.00;101766.16;1972006;73;33205;-77
2021/08/10 22:27:27;;;;;;;48.07;44.90;;;;;;;17.50;100.00;101779.34;1972089;73;31107;-72
2021/08/10 22:32:52;;;;;;;49.07;45.87;;;;;;;17.43;100.00;101781.12;1971886;73;31143;-79
2021/08/10 22:38:17;;;;;;;46.80;43.67;;;;;;;17.36;100.00;101782.68;1971826;73;31058;-79
2021/08/10 22:43:42;;;;;;;47.70;44.40;;;;;;;17.28;100.00;101780.82;1971821;73;33080;-78
2021/08/10 22:49:08;;;;;;;47.50;44.17;;;;;;;17.28;100.00;101784.23;1971916;73;31038;-72
2021/08/10 22:54:33;;;;;;;49.67;46.07;;;;;;;17.37;100.00;101788.57;1972012;73;32965;-79
2021/08/10 22:59:57;;;;;;;46.90;43.67;;;;;;;17.02;100.00;101785.23;1972010;73;32930;-79
2021/08/10 23:05:23;;;;;;;46.90;43.57;;;;;;;16.83;100.00;101795.63;1971807;73;32939;-72
2021/08/10 23:10:48;;;;;;;46.60;43.40;;;;;;;16.88;100.00;101791.91;1971824;73;32912;-79
2021/08/10 23:16:13;;;;;;;46.40;43.23;;;;;;;16.84;100.00;101793.93;1972094;72;30992;-72
2021/08/10 23:21:38;;;;;;;45.73;42.43;;;;;;;16.56;100.00;101798.27;1957647;73;30978;-72
2021/08/10 23:27:02;;;;;;;46.17;43.07;;;;;;;16.64;100.00;101808.27;1971832;73;30965;-79
2021/08/10 23:32:27;;;;;;;47.10;43.80;;;;;;;16.65;100.00;101813.28;1972119;73;31033;-79
2021/08/10 23:37:52;;;;;;;48.23;44.97;;;;;;;16.65;100.00;101802.06;1972061;73;31013;-78
2021/08/10 23:43:16;;;;;;;46.50;43.27;;;;;;;16.59;100.00;101815.92;1972079;72;31519;-79
2021/08/10 23:48:44;;;;;;;47.97;44.73;;;;;;;16.41;100.00;101811.92;1971833;73;31043;-72
2021/08/10 23:54:08;;;;;;;46.60;43.40;;;;;;;16.43;100.00;101815.84;1971895;73;31035;-72
2021/08/10 23:59:33;;;;;;;46.23;43.13;;;;;;;16.49;100.00;101812.65;1971907;73;31067;-72
